sensor_id;sensor_type;location;lat;lon;timestamp;P1;durP1;ratioP1;P2;durP2;ratioP2
9807;SDS011;4943;52.550;13.462;2023-05-27T00:01:50;321.67;;;150.17;;
9807;SDS011;4943;52.550;13.462;2023-05-27T00:04:18;330.47;;;161.60;;
9807;SDS011;4943;52.550;13.462;2023-05-27T00:06:47;319.67;;;147.43;;
9807;SDS011;4943;52.550;13.462;2023-05-27T00:09:15;316.77;;;147.77;;
9807;SDS011;4943;52.550;13.462;2023-05-27T00:11:43;318.63;;;149.83;;
9807;SDS011;4943;52.550;13.462;2023-05-27T00:14:11;324.17;;;144.40;;
9807;SDS011;4943;52.550;13.462;2023-05-27T00:16:41;313.17;;;143.70;;
9807;SDS011;4943;52.550;13.462;2023-05-27T00:19:09;313.50;;;141.20;;
9807;SDS011;4943;52.550;13.462;2023-05-27T00:21:37;313.70;;;143.33;;
9807;SDS011;4943;52.550;13.462;2023-05-27T00:24:06;316.23;;;142.87;;
9807;SDS011;4943;52.550;13.462;2023-05-27T00:26:34;316.97;;;143.33;;
9807;SDS011;4943;52.550;13.462;2023-05-27T00:29:02;315.83;;;146.93;;
9807;SDS011;4943;52.550;13.462;2023-05-27T00:31:30;314.53;;;141.50;;
9807;SDS011;4943;52.550;13.462;2023-05-27T00:34:00;312.97;;;143.20;;
9807;SDS011;4943;52.550;13.462;2023-05-27T00:36:29;313.77;;;143.27;;
9807;SDS011;4943;52.550;13.462;2023-05-27T00:38:58;316.40;;;141.37;;
9807;SDS011;4943;52.550;13.462;2023-05-27T00:41:26;314.40;;;137.30;;
9807;SDS011;4943;52.550;13.462;2023-05-27T00:43:55;311.83;;;137.77;;
9807;SDS011;4943;52.550;13.462;2023-05-27T00:46:23;315.57;;;140.50;;
9807;SDS011;4943;52.550;13.462;2023-05-27T00:48:52;310.50;;;137.60;;
9807;SDS011;4943;52.550;13.462;2023-05-27T00:51:21;311.00;;;138.03;;
9807;SDS011;4943;52.550;13.462;2023-05-27T00:53:49;312.97;;;136.33;;
9807;SDS011;4943;52.550;13.462;2023-05-27T00:56:18;310.20;;;135.83;;
9807;SDS011;4943;52.550;13.462;2023-05-27T00:58:46;313.17;;;137.73;;
9807;SDS011;4943;52.550;13.462;2023-05-27T01:01:15;320.73;;;135.13;;
9807;SDS011;4943;52.550;13.462;2023-05-27T01:03:43;314.27;;;136.77;;
9807;SDS011;4943;52.550;13.462;2023-05-27T01:06:15;317.33;;;137.13;;
9807;SDS011;4943;52.550;13.462;2023-05-27T01:08:54;307.63;;;131.83;;
9807;SDS011;4943;52.550;13.462;2023-05-27T01:11:31;310.43;;;133.50;;
9807;SDS011;4943;52.550;13.462;2023-05-27T01:14:03;312.00;;;134.57;;
9807;SDS011;4943;52.550;13.462;2023-05-27T01:16:35;308.03;;;132.17;;
9807;SDS011;4943;52.550;13.462;2023-05-27T01:19:06;313.27;;;133.97;;
9807;SDS011;4943;52.550;13.462;2023-05-27T01:21:39;305.90;;;129.67;;
9807;SDS011;4943;52.550;13.462;2023-05-27T01:24:12;309.00;;;132.90;;
9807;SDS011;4943;52.550;13.462;2023-05-27T01:26:40;309.97;;;134.00;;
9807;SDS011;4943;52.550;13.462;2023-05-27T01:29:08;308.50;;;129.47;;
9807;SDS011;4943;52.550;13.462;2023-05-27T01:31:39;316.70;;;134.73;;
9807;SDS011;4943;52.550;13.462;2023-05-27T01:34:12;315.13;;;134.10;;
9807;SDS011;4943;52.550;13.462;2023-05-27T01:36:44;315.60;;;131.87;;
9807;SDS011;4943;52.550;13.462;2023-05-27T01:39:17;308.10;;;129.20;;
9807;SDS011;4943;52.550;13.462;2023-05-27T01:41:45;309.17;;;131.20;;
9807;SDS011;4943;52.550;13.462;2023-05-27T01:44:14;312.63;;;135.33;;
9807;SDS011;4943;52.550;13.462;2023-05-27T01:46:44;308.83;;;127.63;;
9807;SDS011;4943;52.550;13.462;2023-05-27T01:49:13;313.57;;;131.30;;
9807;SDS011;4943;52.550;13.462;2023-05-27T01:51:41;310.37;;;130.83;;
9807;SDS011;4943;52.550;13.462;2023-05-27T01:54:09;312.17;;;130.83;;
9807;SDS011;4943;52.550;13.462;2023-05-27T01:56:38;311.43;;;129.50;;
9807;SDS011;4943;52.550;13.462;2023-05-27T01:59:06;312.97;;;128.17;;
9807;SDS011;4943;52.550;13.462;2023-05-27T02:01:34;310.37;;;126.90;;
9807;SDS011;4943;52.550;13.462;2023-05-27T02:04:03;312.37;;;123.07;;
9807;SDS011;4943;52.550;13.462;2023-05-27T02:06:31;311.70;;;129.20;;
9807;SDS011;4943;52.550;13.462;2023-05-27T02:08:59;304.83;;;122.53;;
9807;SDS011;4943;52.550;13.462;2023-05-27T02:11:27;307.67;;;124.87;;
9807;SDS011;4943;52.550;13.462;2023-05-27T02:13:57;311.47;;;128.23;;
9807;SDS011;4943;52.550;13.462;2023-05-27T02:16:25;312.07;;;123.63;;
9807;SDS011;4943;52.550;13.462;2023-05-27T02:18:54;310.33;;;124.50;;
9807;SDS011;4943;52.550;13.462;2023-05-27T02:21:22;306.40;;;122.60;;
9807;SDS011;4943;52.550;13.462;2023-05-27T02:23:50;310.60;;;125.57;;
9807;SDS011;4943;52.550;13.462;2023-05-27T02:26:19;304.97;;;125.83;;
9807;SDS011;4943;52.550;13.462;2023-05-27T02:28:48;308.53;;;125.20;;
9807;SDS011;4943;52.550;13.462;2023-05-27T02:31:17;309.67;;;122.13;;
9807;SDS011;4943;52.550;13.462;2023-05-27T02:33:45;315.40;;;125.30;;
9807;SDS011;4943;52.550;13.462;2023-05-27T02:36:14;302.30;;;122.33;;
9807;SDS011;4943;52.550;13.462;2023-05-27T02:38:42;308.33;;;122.13;;
9807;SDS011;4943;52.550;13.462;2023-05-27T02:41:10;304.97;;;122.30;;
9807;SDS011;4943;52.550;13.462;2023-05-27T02:43:38;308.77;;;124.57;;
9807;SDS011;4943;52.550;13.462;2023-05-27T02:46:06;305.37;;;121.23;;
9807;SDS011;4943;52.550;13.462;2023-05-27T02:48:36;301.23;;;119.67;;
9807;SDS011;4943;52.550;13.462;2023-05-27T02:51:04;303.10;;;121.00;;
9807;SDS011;4943;52.550;13.462;2023-05-27T02:53:32;306.23;;;119.47;;
9807;SDS011;4943;52.550;13.462;2023-05-27T02:56:00;308.03;;;119.60;;
9807;SDS011;4943;52.550;13.462;2023-05-27T02:58:28;306.50;;;121.70;;
9807;SDS011;4943;52.550;13.462;2023-05-27T03:00:58;304.37;;;114.03;;
9807;SDS011;4943;52.550;13.462;2023-05-27T03:03:26;307.87;;;124.73;;
9807;SDS011;4943;52.550;13.462;2023-05-27T03:05:57;307.10;;;117.27;;
9807;SDS011;4943;52.550;13.462;2023-05-27T03:08:25;308.50;;;122.10;;
9807;SDS011;4943;52.550;13.462;2023-05-27T03:10:53;299.17;;;118.40;;
9807;SDS011;4943;52.550;13.462;2023-05-27T03:13:21;303.20;;;119.83;;
9807;SDS011;4943;52.550;13.462;2023-05-27T03:15:49;304.20;;;118.93;;
9807;SDS011;4943;52.550;13.462;2023-05-27T03:18:17;304.20;;;120.57;;
9807;SDS011;4943;52.550;13.462;2023-05-27T03:20:46;312.43;;;122.20;;
9807;SDS011;4943;52.550;13.462;2023-05-27T03:23:15;303.77;;;117.37;;
9807;SDS011;4943;52.550;13.462;2023-05-27T03:25:43;304.30;;;120.33;;
9807;SDS011;4943;52.550;13.462;2023-05-27T03:28:12;307.47;;;125.27;;
9807;SDS011;4943;52.550;13.462;2023-05-27T03:30:40;307.03;;;125.57;;
9807;SDS011;4943;52.550;13.462;2023-05-27T03:33:09;314.33;;;127.07;;
9807;SDS011;4943;52.550;13.462;2023-05-27T03:35:38;305.97;;;130.90;;
9807;SDS011;4943;52.550;13.462;2023-05-27T03:38:06;308.27;;;131.30;;
9807;SDS011;4943;52.550;13.462;2023-05-27T03:40:35;309.37;;;134.20;;
9807;SDS011;4943;52.550;13.462;2023-05-27T03:43:03;309.93;;;134.97;;
9807;SDS011;4943;52.550;13.462;2023-05-27T03:45:31;309.80;;;132.93;;
9807;SDS011;4943;52.550;13.462;2023-05-27T03:47:59;306.83;;;132.03;;
9807;SDS011;4943;52.550;13.462;2023-05-27T03:50:28;313.87;;;130.67;;
9807;SDS011;4943;52.550;13.462;2023-05-27T03:52:56;308.93;;;131.87;;
9807;SDS011;4943;52.550;13.462;2023-05-27T03:55:24;308.67;;;130.73;;
9807;SDS011;4943;52.550;13.462;2023-05-27T03:57:54;309.53;;;133.23;;
9807;SDS011;4943;52.550;13.462;2023-05-27T04:00:22;311.60;;;138.93;;
9807;SDS011;4943;52.550;13.462;2023-05-27T04:02:50;319.77;;;146.07;;
9807;SDS011;4943;52.550;13.462;2023-05-27T04:05:18;321.60;;;147.97;;
9807;SDS011;4943;52.550;13.462;2023-05-27T04:07:47;322.57;;;155.20;;
9807;SDS011;4943;52.550;13.462;2023-05-27T04:10:15;324.80;;;154.83;;
9807;SDS011;4943;52.550;13.462;2023-05-27T04:12:43;322.90;;;159.87;;
9807;SDS011;4943;52.550;13.462;2023-05-27T04:15:12;318.67;;;153.40;;
9807;SDS011;4943;52.550;13.462;2023-05-27T04:17:40;322.70;;;149.50;;
9807;SDS011;4943;52.550;13.462;2023-05-27T04:20:09;319.83;;;154.10;;
9807;SDS011;4943;52.550;13.462;2023-05-27T04:22:40;314.00;;;144.13;;
9807;SDS011;4943;52.550;13.462;2023-05-27T04:25:09;316.73;;;146.50;;
9807;SDS011;4943;52.550;13.462;2023-05-27T04:27:37;316.07;;;142.07;;
9807;SDS011;4943;52.550;13.462;2023-05-27T04:30:06;311.40;;;138.87;;
9807;SDS011;4943;52.550;13.462;2023-05-27T04:32:37;315.43;;;140.87;;
9807;SDS011;4943;52.550;13.462;2023-05-27T04:35:06;316.37;;;140.30;;
9807;SDS011;4943;52.550;13.462;2023-05-27T04:37:36;310.60;;;138.53;;
9807;SDS011;4943;52.550;13.462;2023-05-27T04:40:07;311.77;;;139.57;;
9807;SDS011;4943;52.550;13.462;2023-05-27T04:42:36;315.47;;;136.53;;
9807;SDS011;4943;52.550;13.462;2023-05-27T04:45:05;310.07;;;139.63;;
9807;SDS011;4943;52.550;13.462;2023-05-27T04:47:34;313.70;;;139.03;;
9807;SDS011;4943;52.550;13.462;2023-05-27T04:50:07;310.63;;;132.17;;
9807;SDS011;4943;52.550;13.462;2023-05-27T04:52:36;315.30;;;134.87;;
9807;SDS011;4943;52.550;13.462;2023-05-27T04:55:08;311.00;;;137.87;;
9807;SDS011;4943;52.550;13.462;2023-05-27T04:57:37;314.23;;;135.47;;
9807;SDS011;4943;52.550;13.462;2023-05-27T05:00:08;314.13;;;137.00;;
9807;SDS011;4943;52.550;13.462;2023-05-27T05:02:49;310.23;;;136.20;;
9807;SDS011;4943;52.550;13.462;2023-05-27T05:05:29;311.47;;;133.83;;
9807;SDS011;4943;52.550;13.462;2023-05-27T05:07:57;314.30;;;133.17;;
9807;SDS011;4943;52.550;13.462;2023-05-27T05:10:26;308.87;;;133.37;;
9807;SDS011;4943;52.550;13.462;2023-05-27T05:12:54;315.57;;;134.43;;
9807;SDS011;4943;52.550;13.462;2023-05-27T05:15:22;312.93;;;139.47;;
9807;SDS011;4943;52.550;13.462;2023-05-27T05:17:50;307.23;;;137.50;;
9807;SDS011;4943;52.550;13.462;2023-05-27T05:20:21;312.13;;;138.17;;
9807;SDS011;4943;52.550;13.462;2023-05-27T05:22:51;311.00;;;135.13;;
9807;SDS011;4943;52.550;13.462;2023-05-27T05:25:19;314.33;;;141.70;;
9807;SDS011;4943;52.550;13.462;2023-05-27T05:27:47;317.47;;;142.90;;
9807;SDS011;4943;52.550;13.462;2023-05-27T05:30:15;311.70;;;141.60;;
9807;SDS011;4943;52.550;13.462;2023-05-27T05:32:43;318.60;;;147.57;;
9807;SDS011;4943;52.550;13.462;2023-05-27T05:35:11;313.83;;;145.37;;
9807;SDS011;4943;52.550;13.462;2023-05-27T05:37:39;319.60;;;144.93;;
9807;SDS011;4943;52.550;13.462;2023-05-27T05:40:10;312.87;;;144.57;;
9807;SDS011;4943;52.550;13.462;2023-05-27T05:42:38;313.43;;;145.10;;
9807;SDS011;4943;52.550;13.462;2023-05-27T05:45:07;321.33;;;148.23;;
9807;SDS011;4943;52.550;13.462;2023-05-27T05:47:35;316.77;;;146.70;;
9807;SDS011;4943;52.550;13.462;2023-05-27T05:50:04;312.60;;;144.97;;
9807;SDS011;4943;52.550;13.462;2023-05-27T05:52:33;329.03;;;168.23;;
9807;SDS011;4943;52.550;13.462;2023-05-27T05:55:01;329.37;;;164.90;;
9807;SDS011;4943;52.550;13.462;2023-05-27T05:57:31;325.90;;;165.53;;
9807;SDS011;4943;52.550;13.462;2023-05-27T06:00:01;323.30;;;165.03;;
9807;SDS011;4943;52.550;13.462;2023-05-27T06:02:30;327.23;;;166.73;;
9807;SDS011;4943;52.550;13.462;2023-05-27T06:04:58;327.47;;;171.87;;
9807;SDS011;4943;52.550;13.462;2023-05-27T06:07:26;323.80;;;163.83;;
9807;SDS011;4943;52.550;13.462;2023-05-27T06:09:54;325.07;;;168.20;;
9807;SDS011;4943;52.550;13.462;2023-05-27T06:12:22;325.10;;;170.47;;
9807;SDS011;4943;52.550;13.462;2023-05-27T06:14:54;329.80;;;171.70;;
9807;SDS011;4943;52.550;13.462;2023-05-27T06:17:22;329.97;;;173.17;;
9807;SDS011;4943;52.550;13.462;2023-05-27T06:19:50;329.90;;;177.37;;
9807;SDS011;4943;52.550;13.462;2023-05-27T06:22:18;327.73;;;174.07;;
9807;SDS011;4943;52.550;13.462;2023-05-27T06:24:46;325.00;;;165.50;;
9807;SDS011;4943;52.550;13.462;2023-05-27T06:27:14;318.57;;;164.80;;
9807;SDS011;4943;52.550;13.462;2023-05-27T06:29:42;324.47;;;167.07;;
9807;SDS011;4943;52.550;13.462;2023-05-27T06:32:12;318.07;;;161.47;;
9807;SDS011;4943;52.550;13.462;2023-05-27T06:34:41;320.57;;;163.90;;
9807;SDS011;4943;52.550;13.462;2023-05-27T06:37:09;320.93;;;167.20;;
9807;SDS011;4943;52.550;13.462;2023-05-27T06:39:37;320.43;;;168.60;;
9807;SDS011;4943;52.550;13.462;2023-05-27T06:42:06;320.37;;;170.97;;
9807;SDS011;4943;52.550;13.462;2023-05-27T06:44:34;321.47;;;171.07;;
9807;SDS011;4943;52.550;13.462;2023-05-27T06:47:02;332.27;;;174.37;;
9807;SDS011;4943;52.550;13.462;2023-05-27T06:49:31;322.07;;;172.83;;
9807;SDS011;4943;52.550;13.462;2023-05-27T06:51:59;324.67;;;177.60;;
9807;SDS011;4943;52.550;13.462;2023-05-27T06:54:27;322.40;;;177.73;;
9807;SDS011;4943;52.550;13.462;2023-05-27T06:56:57;325.83;;;183.90;;
9807;SDS011;4943;52.550;13.462;2023-05-27T06:59:25;328.70;;;185.47;;
9807;SDS011;4943;52.550;13.462;2023-05-27T07:01:53;323.07;;;182.50;;
9807;SDS011;4943;52.550;13.462;2023-05-27T07:04:22;324.17;;;184.77;;
9807;SDS011;4943;52.550;13.462;2023-05-27T07:06:51;325.77;;;185.27;;
9807;SDS011;4943;52.550;13.462;2023-05-27T07:09:20;322.13;;;177.13;;
9807;SDS011;4943;52.550;13.462;2023-05-27T07:11:48;325.33;;;185.20;;
9807;SDS011;4943;52.550;13.462;2023-05-27T07:14:16;327.33;;;191.33;;
9807;SDS011;4943;52.550;13.462;2023-05-27T07:16:44;329.30;;;192.10;;
9807;SDS011;4943;52.550;13.462;2023-05-27T07:19:12;331.13;;;200.30;;
9807;SDS011;4943;52.550;13.462;2023-05-27T07:21:40;330.13;;;196.67;;
9807;SDS011;4943;52.550;13.462;2023-05-27T07:24:10;332.00;;;196.37;;
9807;SDS011;4943;52.550;13.462;2023-05-27T07:26:38;332.83;;;199.70;;
9807;SDS011;4943;52.550;13.462;2023-05-27T07:29:06;332.90;;;200.20;;
9807;SDS011;4943;52.550;13.462;2023-05-27T07:31:37;333.63;;;205.60;;
9807;SDS011;4943;52.550;13.462;2023-05-27T07:34:05;330.67;;;201.03;;
9807;SDS011;4943;52.550;13.462;2023-05-27T07:36:33;335.87;;;201.27;;
9807;SDS011;4943;52.550;13.462;2023-05-27T07:39:02;339.70;;;211.37;;
9807;SDS011;4943;52.550;13.462;2023-05-27T07:41:31;335.00;;;209.57;;
9807;SDS011;4943;52.550;13.462;2023-05-27T07:43:59;348.37;;;233.23;;
9807;SDS011;4943;52.550;13.462;2023-05-27T07:46:27;334.33;;;209.37;;
9807;SDS011;4943;52.550;13.462;2023-05-27T07:48:56;340.57;;;211.53;;
9807;SDS011;4943;52.550;13.462;2023-05-27T07:51:24;335.93;;;213.63;;
9807;SDS011;4943;52.550;13.462;2023-05-27T07:53:52;337.50;;;216.53;;
9807;SDS011;4943;52.550;13.462;2023-05-27T07:56:21;342.33;;;221.43;;
9807;SDS011;4943;52.550;13.462;2023-05-27T07:58:50;340.57;;;223.70;;
9807;SDS011;4943;52.550;13.462;2023-05-27T08:01:18;339.27;;;219.00;;
9807;SDS011;4943;52.550;13.462;2023-05-27T08:03:46;341.80;;;220.17;;
9807;SDS011;4943;52.550;13.462;2023-05-27T08:06:16;339.73;;;221.77;;
9807;SDS011;4943;52.550;13.462;2023-05-27T08:08:45;341.40;;;227.37;;
9807;SDS011;4943;52.550;13.462;2023-05-27T08:11:14;340.47;;;226.40;;
9807;SDS011;4943;52.550;13.462;2023-05-27T08:13:42;347.07;;;232.83;;
9807;SDS011;4943;52.550;13.462;2023-05-27T08:16:11;340.17;;;226.73;;
9807;SDS011;4943;52.550;13.462;2023-05-27T08:18:40;346.00;;;242.47;;
9807;SDS011;4943;52.550;13.462;2023-05-27T08:21:08;340.77;;;224.57;;
9807;SDS011;4943;52.550;13.462;2023-05-27T08:23:36;339.80;;;231.37;;
9807;SDS011;4943;52.550;13.462;2023-05-27T08:26:04;341.87;;;233.60;;
9807;SDS011;4943;52.550;13.462;2023-05-27T08:28:32;343.73;;;237.83;;
9807;SDS011;4943;52.550;13.462;2023-05-27T08:31:03;344.40;;;234.73;;
9807;SDS011;4943;52.550;13.462;2023-05-27T08:33:33;343.90;;;233.30;;
9807;SDS011;4943;52.550;13.462;2023-05-27T08:36:01;344.87;;;239.20;;
9807;SDS011;4943;52.550;13.462;2023-05-27T08:38:29;343.23;;;239.53;;
9807;SDS011;4943;52.550;13.462;2023-05-27T08:40:57;344.63;;;240.73;;
9807;SDS011;4943;52.550;13.462;2023-05-27T08:43:25;351.10;;;248.33;;
9807;SDS011;4943;52.550;13.462;2023-05-27T08:45:54;348.83;;;253.13;;
9807;SDS011;4943;52.550;13.462;2023-05-27T08:48:23;352.93;;;259.67;;
9807;SDS011;4943;52.550;13.462;2023-05-27T08:50:53;348.40;;;251.27;;
9807;SDS011;4943;52.550;13.462;2023-05-27T08:53:22;350.70;;;255.67;;
9807;SDS011;4943;52.550;13.462;2023-05-27T08:55:50;347.27;;;255.20;;
9807;SDS011;4943;52.550;13.462;2023-05-27T08:58:21;349.33;;;255.57;;
9807;SDS011;4943;52.550;13.462;2023-05-27T09:00:49;351.57;;;255.93;;
9807;SDS011;4943;52.550;13.462;2023-05-27T09:03:17;352.50;;;259.07;;
9807;SDS011;4943;52.550;13.462;2023-05-27T09:05:46;347.73;;;253.37;;
9807;SDS011;4943;52.550;13.462;2023-05-27T09:08:16;349.97;;;256.80;;
9807;SDS011;4943;52.550;13.462;2023-05-27T09:10:44;352.07;;;254.03;;
9807;SDS011;4943;52.550;13.462;2023-05-27T09:13:12;350.40;;;256.47;;
9807;SDS011;4943;52.550;13.462;2023-05-27T09:15:40;351.43;;;262.37;;
9807;SDS011;4943;52.550;13.462;2023-05-27T09:18:08;352.57;;;262.70;;
9807;SDS011;4943;52.550;13.462;2023-05-27T09:20:40;353.20;;;262.97;;
9807;SDS011;4943;52.550;13.462;2023-05-27T09:23:08;353.33;;;264.60;;
9807;SDS011;4943;52.550;13.462;2023-05-27T09:25:39;357.83;;;272.90;;
9807;SDS011;4943;52.550;13.462;2023-05-27T09:28:07;357.17;;;269.93;;
9807;SDS011;4943;52.550;13.462;2023-05-27T09:30:36;382.23;;;317.43;;
9807;SDS011;4943;52.550;13.462;2023-05-27T09:33:04;380.37;;;317.90;;
9807;SDS011;4943;52.550;13.462;2023-05-27T09:35:36;376.37;;;316.90;;
9807;SDS011;4943;52.550;13.462;2023-05-27T09:38:06;374.63;;;313.93;;
9807;SDS011;4943;52.550;13.462;2023-05-27T09:40:35;373.50;;;311.93;;
9807;SDS011;4943;52.550;13.462;2023-05-27T09:43:05;372.30;;;309.07;;
9807;SDS011;4943;52.550;13.462;2023-05-27T09:45:33;362.50;;;285.77;;
9807;SDS011;4943;52.550;13.462;2023-05-27T09:48:02;361.43;;;289.77;;
9807;SDS011;4943;52.550;13.462;2023-05-27T09:50:32;373.53;;;295.47;;
9807;SDS011;4943;52.550;13.462;2023-05-27T09:53:01;370.57;;;292.07;;
9807;SDS011;4943;52.550;13.462;2023-05-27T09:55:38;355.47;;;274.60;;
9807;SDS011;4943;52.550;13.462;2023-05-27T09:58:09;363.30;;;291.53;;
9807;SDS011;4943;52.550;13.462;2023-05-27T10:00:38;362.60;;;291.03;;
9807;SDS011;4943;52.550;13.462;2023-05-27T10:03:08;363.03;;;291.23;;
9807;SDS011;4943;52.550;13.462;2023-05-27T10:05:37;363.30;;;292.87;;
9807;SDS011;4943;52.550;13.462;2023-05-27T10:08:07;361.17;;;289.57;;
9807;SDS011;4943;52.550;13.462;2023-05-27T10:10:50;362.00;;;292.20;;
9807;SDS011;4943;52.550;13.462;2023-05-27T10:13:21;366.73;;;294.03;;
9807;SDS011;4943;52.550;13.462;2023-05-27T10:15:51;366.80;;;304.30;;
9807;SDS011;4943;52.550;13.462;2023-05-27T10:18:23;367.60;;;307.60;;
9807;SDS011;4943;52.550;13.462;2023-05-27T10:20:53;364.50;;;302.40;;
9807;SDS011;4943;52.550;13.462;2023-05-27T10:23:23;365.87;;;308.70;;
9807;SDS011;4943;52.550;13.462;2023-05-27T10:25:53;371.43;;;311.73;;
9807;SDS011;4943;52.550;13.462;2023-05-27T10:28:25;369.83;;;314.80;;
9807;SDS011;4943;52.550;13.462;2023-05-27T10:31:02;368.53;;;310.40;;
9807;SDS011;4943;52.550;13.462;2023-05-27T10:33:33;370.60;;;309.70;;
9807;SDS011;4943;52.550;13.462;2023-05-27T10:36:07;369.20;;;309.80;;
9807;SDS011;4943;52.550;13.462;2023-05-27T10:38:38;370.33;;;315.77;;
9807;SDS011;4943;52.550;13.462;2023-05-27T10:41:07;369.50;;;318.10;;
9807;SDS011;4943;52.550;13.462;2023-05-27T10:43:37;377.37;;;332.23;;
9807;SDS011;4943;52.550;13.462;2023-05-27T10:46:06;370.87;;;318.83;;
9807;SDS011;4943;52.550;13.462;2023-05-27T10:48:36;370.90;;;314.87;;
9807;SDS011;4943;52.550;13.462;2023-05-27T10:51:06;370.10;;;317.67;;
9807;SDS011;4943;52.550;13.462;2023-05-27T10:53:35;381.87;;;327.13;;
9807;SDS011;4943;52.550;13.462;2023-05-27T10:56:04;375.13;;;330.47;;
9807;SDS011;4943;52.550;13.462;2023-05-27T10:58:33;371.13;;;319.87;;
9807;SDS011;4943;52.550;13.462;2023-05-27T11:01:07;375.13;;;329.73;;
9807;SDS011;4943;52.550;13.462;2023-05-27T11:03:41;399.73;;;356.93;;
9807;SDS011;4943;52.550;13.462;2023-05-27T11:06:11;376.83;;;334.33;;
9807;SDS011;4943;52.550;13.462;2023-05-27T11:08:41;384.23;;;342.13;;
9807;SDS011;4943;52.550;13.462;2023-05-27T11:11:10;375.60;;;330.40;;
9807;SDS011;4943;52.550;13.462;2023-05-27T11:13:39;389.23;;;346.77;;
9807;SDS011;4943;52.550;13.462;2023-05-27T11:16:14;389.90;;;347.50;;
9807;SDS011;4943;52.550;13.462;2023-05-27T11:18:43;391.73;;;349.13;;
9807;SDS011;4943;52.550;13.462;2023-05-27T11:21:13;392.83;;;350.33;;
9807;SDS011;4943;52.550;13.462;2023-05-27T11:23:43;394.33;;;351.77;;
9807;SDS011;4943;52.550;13.462;2023-05-27T11:26:13;401.83;;;359.13;;
9807;SDS011;4943;52.550;13.462;2023-05-27T11:28:45;393.67;;;351.30;;
9807;SDS011;4943;52.550;13.462;2023-05-27T11:31:16;404.83;;;361.87;;
9807;SDS011;4943;52.550;13.462;2023-05-27T11:33:46;409.03;;;366.17;;
9807;SDS011;4943;52.550;13.462;2023-05-27T11:36:17;412.63;;;369.47;;
9807;SDS011;4943;52.550;13.462;2023-05-27T11:38:50;411.30;;;368.27;;
9807;SDS011;4943;52.550;13.462;2023-05-27T11:41:20;417.27;;;374.17;;
9807;SDS011;4943;52.550;13.462;2023-05-27T11:43:50;418.30;;;375.03;;
9807;SDS011;4943;52.550;13.462;2023-05-27T11:46:20;421.17;;;377.93;;
9807;SDS011;4943;52.550;13.462;2023-05-27T11:48:49;416.23;;;373.03;;
9807;SDS011;4943;52.550;13.462;2023-05-27T11:51:17;429.60;;;385.97;;
9807;SDS011;4943;52.550;13.462;2023-05-27T11:53:45;425.27;;;381.80;;
9807;SDS011;4943;52.550;13.462;2023-05-27T11:56:14;480.23;;;434.73;;
9807;SDS011;4943;52.550;13.462;2023-05-27T11:58:42;480.35;;;434.65;;
9807;SDS011;4943;52.550;13.462;2023-05-27T12:01:10;480.90;;;435.50;;
9807;SDS011;4943;52.550;13.462;2023-05-27T12:03:39;484.50;;;438.55;;
9807;SDS011;4943;52.550;13.462;2023-05-27T12:06:08;471.83;;;426.35;;
9807;SDS011;4943;52.550;13.462;2023-05-27T12:08:37;450.30;;;406.02;;
9807;SDS011;4943;52.550;13.462;2023-05-27T12:11:05;447.33;;;403.02;;
9807;SDS011;4943;52.550;13.462;2023-05-27T12:13:33;453.67;;;409.40;;
9807;SDS011;4943;52.550;13.462;2023-05-27T12:16:01;459.65;;;415.05;;
9807;SDS011;4943;52.550;13.462;2023-05-27T12:18:31;458.02;;;413.75;;
9807;SDS011;4943;52.550;13.462;2023-05-27T12:21:00;464.92;;;420.20;;
9807;SDS011;4943;52.550;13.462;2023-05-27T12:23:29;457.25;;;412.98;;
9807;SDS011;4943;52.550;13.462;2023-05-27T12:25:57;518.22;;;471.27;;
9807;SDS011;4943;52.550;13.462;2023-05-27T12:28:25;460.92;;;416.13;;
9807;SDS011;4943;52.550;13.462;2023-05-27T12:30:53;449.27;;;405.13;;
9807;SDS011;4943;52.550;13.462;2023-05-27T12:33:22;461.77;;;417.27;;
9807;SDS011;4943;52.550;13.462;2023-05-27T12:35:51;455.80;;;411.30;;
9807;SDS011;4943;52.550;13.462;2023-05-27T12:38:20;458.58;;;414.20;;
9807;SDS011;4943;52.550;13.462;2023-05-27T12:40:48;461.02;;;416.55;;
9807;SDS011;4943;52.550;13.462;2023-05-27T12:43:16;464.88;;;420.38;;
9807;SDS011;4943;52.550;13.462;2023-05-27T12:45:45;460.23;;;415.67;;
9807;SDS011;4943;52.550;13.462;2023-05-27T12:48:14;464.35;;;419.88;;
9807;SDS011;4943;52.550;13.462;2023-05-27T12:50:44;464.17;;;419.77;;
9807;SDS011;4943;52.550;13.462;2023-05-27T12:53:12;468.65;;;423.98;;
9807;SDS011;4943;52.550;13.462;2023-05-27T12:55:41;461.73;;;417.02;;
9807;SDS011;4943;52.550;13.462;2023-05-27T12:58:11;470.30;;;425.63;;
9807;SDS011;4943;52.550;13.462;2023-05-27T13:00:39;473.48;;;428.52;;
9807;SDS011;4943;52.550;13.462;2023-05-27T13:03:07;485.88;;;440.48;;
9807;SDS011;4943;52.550;13.462;2023-05-27T13:05:38;489.65;;;444.27;;
9807;SDS011;4943;52.550;13.462;2023-05-27T13:08:06;503.08;;;457.00;;
9807;SDS011;4943;52.550;13.462;2023-05-27T13:10:34;506.40;;;460.55;;
9807;SDS011;4943;52.550;13.462;2023-05-27T13:13:03;498.67;;;452.98;;
9807;SDS011;4943;52.550;13.462;2023-05-27T13:15:31;509.58;;;463.45;;
9807;SDS011;4943;52.550;13.462;2023-05-27T13:17:59;503.40;;;457.70;;
9807;SDS011;4943;52.550;13.462;2023-05-27T13:20:29;505.98;;;460.17;;
9807;SDS011;4943;52.550;13.462;2023-05-27T13:22:58;504.45;;;458.73;;
9807;SDS011;4943;52.550;13.462;2023-05-27T13:25:27;501.20;;;455.60;;
9807;SDS011;4943;52.550;13.462;2023-05-27T13:27:56;506.25;;;460.48;;
9807;SDS011;4943;52.550;13.462;2023-05-27T13:30:28;501.40;;;455.80;;
9807;SDS011;4943;52.550;13.462;2023-05-27T13:32:58;506.00;;;460.05;;
9807;SDS011;4943;52.550;13.462;2023-05-27T13:35:27;513.55;;;467.48;;
9807;SDS011;4943;52.550;13.462;2023-05-27T13:37:57;519.28;;;472.98;;
9807;SDS011;4943;52.550;13.462;2023-05-27T13:40:27;532.15;;;485.52;;
9807;SDS011;4943;52.550;13.462;2023-05-27T13:42:56;539.85;;;492.95;;
9807;SDS011;4943;52.550;13.462;2023-05-27T13:45:28;548.20;;;500.88;;
9807;SDS011;4943;52.550;13.462;2023-05-27T13:47:57;547.60;;;500.45;;
9807;SDS011;4943;52.550;13.462;2023-05-27T13:50:27;546.95;;;499.65;;
9807;SDS011;4943;52.550;13.462;2023-05-27T13:52:58;542.80;;;495.80;;
9807;SDS011;4943;52.550;13.462;2023-05-27T13:55:27;556.50;;;508.90;;
9807;SDS011;4943;52.550;13.462;2023-05-27T13:57:57;564.70;;;516.53;;
9807;SDS011;4943;52.550;13.462;2023-05-27T14:00:29;564.60;;;516.97;;
9807;SDS011;4943;52.550;13.462;2023-05-27T14:02:59;568.20;;;520.33;;
9807;SDS011;4943;52.550;13.462;2023-05-27T14:05:28;565.30;;;517.70;;
9807;SDS011;4943;52.550;13.462;2023-05-27T14:07:58;565.25;;;517.65;;
9807;SDS011;4943;52.550;13.462;2023-05-27T14:10:28;621.45;;;571.45;;
9807;SDS011;4943;52.550;13.462;2023-05-27T14:12:58;581.25;;;533.15;;
9807;SDS011;4943;52.550;13.462;2023-05-27T14:15:31;575.75;;;527.90;;
9807;SDS011;4943;52.550;13.462;2023-05-27T14:18:01;634.13;;;583.70;;
9807;SDS011;4943;52.550;13.462;2023-05-27T14:20:32;576.13;;;528.03;;